Terminal Aerodrome Forecast
Issued by NWS Dallas/Fort Worth, TX

Home | Current Version | Previous Version | Text Only | Print | Product List | Glossary On
Versions: 1 2 3 4 5 6 7 8 9 10 11 12 13 14 15 16 17 18 19 20 21 22 23 24 25 26 27 28 29 30 31 32 33 34
930
FTUS44 KFWD 172015 AAB
TAFDFW
TAF AMD
KDFW 172015Z 1720/1824 12010KT P6SM VCTS SCT050CB BKN250
      TEMPO 1720/1722 5SM TSRA BKN050CB
     FM172300 15008KT P6SM SCT035 BKN250
     FM181500 21010KT P6SM SCT050 BKN300=

USA.gov is the U.S. government's official web portal to all federal, state and local government web resources and services.